createdAt,value
2023-01-10T00:00:57.022Z,2.10
2023-01-10T00:03:24.038Z,1.98
2023-01-10T00:05:51.085Z,2.75
2023-01-10T00:08:18.380Z,4.43
2023-01-10T00:10:45.296Z,5.25
2023-01-10T00:13:26.357Z,4.68
2023-01-10T00:15:55.842Z,2.90
2023-01-10T00:18:23.095Z,3.40
2023-01-10T00:20:50.171Z,4.03
2023-01-10T00:23:18.730Z,2.33
2023-01-10T00:25:45.627Z,4.10
2023-01-10T00:28:21.498Z,2.83
2023-01-10T00:31:01.396Z,6.03
2023-01-10T00:33:32.204Z,3.53
2023-01-10T00:36:03.467Z,1.55
2023-01-10T00:41:26.368Z,3.35
2023-01-10T00:43:58.922Z,2.50
2023-01-10T00:46:27.105Z,1.50
2023-01-10T00:48:53.995Z,2.25
2023-01-10T00:51:20.878Z,2.53
2023-01-10T00:53:47.738Z,2.22
2023-01-10T00:56:14.601Z,2.20
2023-01-10T00:58:41.438Z,3.38
2023-01-10T01:01:08.467Z,2.63
2023-01-10T01:03:35.560Z,1.70
2023-01-10T01:06:06.535Z,4.07
2023-01-10T01:08:33.476Z,3.33
2023-01-10T01:11:00.520Z,1.33
2023-01-10T01:13:27.486Z,1.90
2023-01-10T01:15:58.323Z,2.38
2023-01-10T01:18:25.180Z,3.78
2023-01-10T01:20:57.145Z,2.55
2023-01-10T01:23:25.104Z,2.80
2023-01-10T01:25:53.710Z,2.53
2023-01-10T01:28:22.076Z,1.75
2023-01-10T01:30:49.556Z,2.22
2023-01-10T01:33:17.581Z,2.38
2023-01-10T01:35:46.252Z,2.70
2023-01-10T01:38:13.915Z,4.75
2023-01-10T01:40:41.979Z,3.95
2023-01-10T01:43:27.526Z,2.22
2023-01-10T01:45:55.331Z,2.95
2023-01-10T01:48:38.782Z,2.58
2023-01-10T01:51:09.916Z,1.48
2023-01-10T01:56:10.425Z,1.83
2023-01-10T01:58:47.195Z,1.35
2023-01-10T02:01:16.733Z,2.03
2023-01-10T02:03:47.761Z,3.03
2023-01-10T02:06:16.290Z,3.53
2023-01-10T02:08:50.890Z,2.35
2023-01-10T02:11:17.732Z,2.75
2023-01-10T02:13:46.679Z,1.85
2023-01-10T02:16:14.105Z,0.73
2023-01-10T02:18:42.811Z,1.83
2023-01-10T02:21:15.894Z,1.17
2023-01-10T02:24:01.376Z,1.10
2023-01-10T02:27:15.518Z,1.33
2023-01-10T02:30:00.544Z,2.05
2023-01-10T02:33:04.583Z,1.75
2023-01-10T02:35:45.385Z,1.50
2023-01-10T02:38:36.558Z,1.30
2023-01-10T02:41:15.803Z,1.38
2023-01-10T02:44:07.720Z,2.05
2023-01-10T02:46:37.407Z,1.05
2023-01-10T02:49:04.463Z,1.75
2023-01-10T02:51:33.717Z,3.63
2023-01-10T02:54:09.874Z,1.08
2023-01-10T02:56:45.777Z,0.93
2023-01-10T02:59:31.327Z,0.93
2023-01-10T03:02:22.147Z,1.27
2023-01-10T03:05:30.514Z,4.82
2023-01-10T03:08:12.460Z,1.50
2023-01-10T03:11:01.829Z,1.25
2023-01-10T03:13:46.925Z,2.15
2023-01-10T03:16:19.854Z,1.50
2023-01-10T03:18:57.796Z,2.53
2023-01-10T03:21:27.019Z,1.77
2023-01-10T03:24:01.264Z,1.15
2023-01-10T03:26:37.173Z,2.40
2023-01-10T03:29:11.246Z,1.30
2023-01-10T03:31:50.069Z,8.80
2023-01-10T03:34:17.417Z,1.20
2023-01-10T03:36:55.228Z,1.00
2023-01-10T03:39:44.783Z,1.05
2023-01-10T03:42:29.366Z,2.00
2023-01-10T03:45:02.231Z,1.50
2023-01-10T03:47:46.777Z,2.40
2023-01-10T03:50:26.156Z,1.63
2023-01-10T03:52:53.530Z,2.38
2023-01-10T03:55:27.644Z,1.65
2023-01-10T03:57:54.569Z,1.30
2023-01-10T04:00:21.694Z,1.35
2023-01-10T04:02:48.513Z,1.27
2023-01-10T04:05:15.423Z,1.08
2023-01-10T04:07:42.775Z,2.35
2023-01-10T04:10:10.109Z,1.42
2023-01-10T04:12:36.990Z,0.82
2023-01-10T04:15:04.273Z,1.02
2023-01-10T04:17:31.142Z,1.98
2023-01-10T04:19:58.028Z,1.63
2023-01-10T04:22:24.906Z,1.40
2023-01-10T04:24:52.357Z,1.45
2023-01-10T04:27:19.788Z,2.40
2023-01-10T04:29:47.371Z,0.93
2023-01-10T04:32:14.618Z,1.83
2023-01-10T04:34:41.497Z,2.10
2023-01-10T04:37:08.371Z,1.30
2023-01-10T04:39:35.256Z,1.90
2023-01-10T04:42:02.188Z,1.02
2023-01-10T04:44:28.992Z,1.05
2023-01-10T04:46:55.818Z,2.00
2023-01-10T04:49:22.689Z,1.15
2023-01-10T04:51:49.525Z,1.33
2023-01-10T04:54:20.976Z,1.33
2023-01-10T04:56:47.867Z,2.03
2023-01-10T04:59:14.947Z,2.05
2023-01-10T05:01:41.957Z,2.65
2023-01-10T05:04:09.534Z,2.28
2023-01-10T05:06:37.363Z,1.27
2023-01-10T05:09:04.267Z,1.20
2023-01-10T05:11:31.165Z,2.38
2023-01-10T05:13:58.004Z,1.50
2023-01-10T05:16:25.712Z,1.27
2023-01-10T05:18:52.664Z,1.63
2023-01-10T05:21:19.467Z,2.15
2023-01-10T05:23:46.484Z,2.95
2023-01-10T05:26:19.317Z,2.03
2023-01-10T05:28:46.400Z,2.15
2023-01-10T05:31:17.286Z,1.63
2023-01-10T05:33:48.414Z,1.45
2023-01-10T05:36:15.557Z,3.70
2023-01-10T05:38:42.580Z,2.92
2023-01-10T05:41:09.565Z,4.78
2023-01-10T05:43:36.463Z,3.33
2023-01-10T05:46:03.520Z,3.40
2023-01-10T05:48:30.466Z,2.40
2023-01-10T05:50:58.019Z,1.67
2023-01-10T05:53:24.955Z,2.47
2023-01-10T05:56:02.103Z,9.05
2023-01-10T05:58:29.948Z,7.43
2023-01-10T06:00:58.194Z,6.38
2023-01-10T06:03:26.898Z,3.90
2023-01-10T06:05:57.453Z,5.18
2023-01-10T06:08:25.092Z,3.70
2023-01-10T06:10:52.423Z,4.55
2023-01-10T06:13:19.310Z,31.55
2023-01-10T06:15:46.395Z,8.85
2023-01-10T06:18:13.611Z,5.07
2023-01-10T06:20:44.580Z,5.53
2023-01-10T06:23:11.574Z,7.60
2023-01-10T06:25:40.937Z,4.53
2023-01-10T06:28:09.410Z,21.98
2023-01-10T06:30:36.220Z,15.68
2023-01-10T06:33:08.918Z,16.70
2023-01-10T06:35:36.468Z,39.50
2023-01-10T06:38:03.406Z,20.10
2023-01-10T06:40:30.426Z,21.95
2023-01-10T06:42:57.240Z,12.27
2023-01-10T06:45:24.172Z,28.98
2023-01-10T06:47:51.044Z,12.98
2023-01-10T06:50:18.502Z,15.57
2023-01-10T06:52:45.438Z,20.60
2023-01-10T06:55:12.465Z,14.27
2023-01-10T06:57:39.285Z,20.52
2023-01-10T07:00:09.828Z,24.17
2023-01-10T07:02:37.435Z,7.80
2023-01-10T07:05:04.562Z,5.18
2023-01-10T07:07:31.526Z,9.02
2023-01-10T07:10:00.047Z,4.38
2023-01-10T07:12:26.887Z,4.80
2023-01-10T07:14:53.768Z,7.57
2023-01-10T07:17:20.716Z,5.03
2023-01-10T07:19:47.571Z,4.30
2023-01-10T07:22:14.473Z,14.25
2023-01-10T07:24:41.377Z,13.75
2023-01-10T07:27:08.264Z,14.85
2023-01-10T07:29:35.238Z,13.13
2023-01-10T07:32:02.251Z,11.88
2023-01-10T07:34:29.376Z,18.40
2023-01-10T07:36:56.230Z,12.75
2023-01-10T07:39:23.081Z,8.85
2023-01-10T07:41:50.895Z,6.90
2023-01-10T07:44:17.826Z,5.88
2023-01-10T07:46:44.821Z,5.38
2023-01-10T07:49:11.919Z,8.13
2023-01-10T07:51:38.805Z,6.93
2023-01-10T07:54:05.737Z,3.20
2023-01-10T07:56:33.368Z,6.18
2023-01-10T07:59:01.570Z,5.45
2023-01-10T08:01:29.925Z,4.22
2023-01-10T08:03:58.583Z,8.32
2023-01-10T08:06:25.631Z,5.25
2023-01-10T08:08:52.485Z,5.25
2023-01-10T08:11:19.662Z,5.90
2023-01-10T08:13:46.984Z,3.75
2023-01-10T08:16:15.625Z,6.68
2023-01-10T08:18:43.573Z,4.97
2023-01-10T08:21:10.593Z,3.72
2023-01-10T08:23:37.556Z,3.55
2023-01-10T08:26:06.029Z,2.70
2023-01-10T08:28:33.351Z,4.05
2023-01-10T08:31:06.413Z,3.53
2023-01-10T08:33:33.624Z,3.47
2023-01-10T08:36:00.523Z,3.80
2023-01-10T08:38:27.384Z,4.28
2023-01-10T08:40:57.736Z,4.35
2023-01-10T08:43:24.903Z,3.57
2023-01-10T08:45:52.309Z,3.70
2023-01-10T08:48:19.257Z,3.47
2023-01-10T08:50:46.284Z,2.65
2023-01-10T08:53:14.079Z,3.75
2023-01-10T08:55:41.077Z,3.15
2023-01-10T08:58:08.167Z,3.30
2023-01-10T09:00:35.156Z,3.65
2023-01-10T09:03:02.404Z,3.60
2023-01-10T09:05:29.474Z,3.38
2023-01-10T09:08:01.235Z,2.88
2023-01-10T09:10:30.264Z,8.15
2023-01-10T09:13:01.978Z,3.83
2023-01-10T09:15:33.054Z,4.95
2023-01-10T09:18:07.814Z,4.93
2023-01-10T09:20:37.212Z,2.28
2023-01-10T09:23:20.724Z,8.77
2023-01-10T09:25:49.492Z,6.90
2023-01-10T09:28:17.802Z,3.22
2023-01-10T09:30:45.406Z,8.40
2023-01-10T09:33:13.427Z,9.02
2023-01-10T09:35:41.983Z,4.32
2023-01-10T09:38:13.070Z,7.60
2023-01-10T09:41:35.834Z,3.80
2023-01-10T09:44:19.244Z,4.18
2023-01-10T09:46:55.519Z,4.00
2023-01-10T09:49:22.703Z,14.98
2023-01-10T09:51:52.487Z,10.70
2023-01-10T09:54:38.636Z,17.88
2023-01-10T09:57:08.184Z,21.58
2023-01-10T09:59:41.768Z,11.27
2023-01-10T10:02:15.006Z,12.70
2023-01-10T10:04:42.325Z,7.10
2023-01-10T10:07:14.931Z,9.88
2023-01-10T10:09:43.543Z,8.23
2023-01-10T10:12:36.633Z,9.85
2023-01-10T10:15:16.138Z,7.32
2023-01-10T10:18:12.675Z,8.43
2023-01-10T10:20:48.748Z,6.53
2023-01-10T10:23:22.456Z,7.47
2023-01-10T10:25:49.378Z,8.68
2023-01-10T10:28:53.912Z,13.77
2023-01-10T10:31:45.304Z,5.45
2023-01-10T10:34:47.768Z,5.30
2023-01-10T10:37:33.127Z,3.95
2023-01-10T10:40:15.041Z,5.07
2023-01-10T10:42:51.650Z,5.47
2023-01-10T10:45:25.534Z,4.10
2023-01-10T10:48:15.825Z,3.42
2023-01-10T10:51:01.078Z,3.85
2023-01-10T10:53:30.233Z,7.13
2023-01-10T10:55:57.770Z,3.35
2023-01-10T10:58:26.200Z,4.13
2023-01-10T11:00:55.076Z,9.00
2023-01-10T11:03:31.126Z,6.97
2023-01-10T11:06:00.126Z,10.95
2023-01-10T11:08:30.120Z,1.77
2023-01-10T11:10:59.622Z,7.50
2023-01-10T11:13:26.508Z,4.55
2023-01-10T11:15:56.447Z,14.23
2023-01-10T11:18:27.760Z,28.77
2023-01-10T11:21:00.637Z,46.17
2023-01-10T11:23:40.123Z,53.53
2023-01-10T11:26:40.927Z,97.15
2023-01-10T11:29:27.371Z,140.38
2023-01-10T11:31:56.554Z,139.30
2023-01-10T11:34:25.824Z,61.85
2023-01-10T11:37:25.736Z,92.50
2023-01-10T11:40:17.609Z,66.43
2023-01-10T11:42:45.160Z,134.77
2023-01-10T11:45:18.209Z,120.35
2023-01-10T11:48:18.532Z,83.80
2023-01-10T11:50:50.961Z,78.13
2023-01-10T11:53:39.813Z,113.13
2023-01-10T11:56:08.538Z,66.15
2023-01-10T11:58:38.534Z,56.17
2023-01-10T12:01:06.165Z,107.13
2023-01-10T12:03:38.682Z,55.38
2023-01-10T12:06:18.246Z,56.47
2023-01-10T12:08:45.509Z,60.72
2023-01-10T12:11:18.425Z,63.47
2023-01-10T12:13:58.068Z,40.22
2023-01-10T12:16:33.705Z,68.55
2023-01-10T12:19:04.336Z,34.15
2023-01-10T12:21:43.344Z,37.13
2023-01-10T12:24:24.783Z,34.92
2023-01-10T12:26:54.058Z,19.85
2023-01-10T12:29:28.265Z,23.27
2023-01-10T12:31:58.471Z,23.10
2023-01-10T12:34:40.526Z,16.00
2023-01-10T12:37:40.833Z,18.95
2023-01-10T12:40:56.425Z,16.02
2023-01-10T12:44:03.416Z,7.65
2023-01-10T12:47:05.771Z,9.25
2023-01-10T12:49:35.204Z,6.97
2023-01-10T12:52:10.517Z,6.75
2023-01-10T12:54:37.646Z,5.10
2023-01-10T12:57:17.000Z,4.53
2023-01-10T12:59:45.562Z,13.40
2023-01-10T13:02:22.714Z,48.60
2023-01-10T13:04:55.654Z,8.77
2023-01-10T13:07:26.849Z,8.88
2023-01-10T13:12:40.848Z,50.88
2023-01-10T13:15:22.376Z,25.77
2023-01-10T13:17:56.059Z,48.55
2023-01-10T13:20:23.232Z,45.22
2023-01-10T13:22:56.047Z,37.10
2023-01-10T13:25:27.321Z,28.40
2023-01-10T13:28:23.179Z,34.38
2023-01-10T13:30:55.552Z,14.43
2023-01-10T13:33:26.271Z,9.57
2023-01-10T13:35:57.185Z,11.98
2023-01-10T13:38:36.402Z,9.20
2023-01-10T13:41:29.978Z,7.45
2023-01-10T13:44:05.920Z,8.90
2023-01-10T13:46:38.762Z,10.75
2023-01-10T13:49:11.918Z,8.07
2023-01-10T13:52:17.260Z,5.78
2023-01-10T13:54:58.189Z,6.00
2023-01-10T13:57:57.706Z,50.75
2023-01-10T14:00:53.179Z,19.40
2023-01-10T14:03:40.650Z,14.95
2023-01-10T14:06:11.784Z,27.98
2023-01-10T14:11:10.319Z,11.70
2023-01-10T14:13:39.290Z,5.68
2023-01-10T14:16:09.418Z,8.07
2023-01-10T14:18:39.987Z,2.17
2023-01-10T14:21:10.164Z,5.32
2023-01-10T14:23:50.214Z,10.90
2023-01-10T14:26:37.463Z,9.23
2023-01-10T14:29:14.134Z,10.70
2023-01-10T14:31:47.552Z,4.88
2023-01-10T14:34:23.729Z,7.43
2023-01-10T14:37:03.781Z,7.43
2023-01-10T14:39:31.393Z,8.77
2023-01-10T14:42:11.939Z,9.00
2023-01-10T14:44:46.065Z,38.35
2023-01-10T14:47:35.140Z,6.68
2023-01-10T14:50:03.619Z,7.03
2023-01-10T14:52:31.311Z,11.05
2023-01-10T14:54:58.404Z,4.40
2023-01-10T14:57:25.445Z,5.80
2023-01-10T15:00:06.590Z,8.93
2023-01-10T15:02:34.370Z,12.82
2023-01-10T15:05:09.944Z,20.27
2023-01-10T15:07:38.215Z,13.80
2023-01-10T15:10:42.089Z,26.05
2023-01-10T15:13:09.380Z,5.70
2023-01-10T15:15:39.117Z,5.00
2023-01-10T15:18:44.823Z,7.70
2023-01-10T15:21:14.009Z,6.10
2023-01-10T15:23:44.767Z,14.02
2023-01-10T15:26:22.134Z,15.73
2023-01-10T15:29:06.366Z,11.95
2023-01-10T15:31:37.918Z,12.00
2023-01-10T15:34:32.218Z,7.47
2023-01-10T15:37:03.344Z,78.53
2023-01-10T15:42:12.043Z,22.63
2023-01-10T15:44:40.660Z,19.35
2023-01-10T15:47:39.441Z,28.77
2023-01-10T15:50:22.266Z,34.28
2023-01-10T15:52:55.470Z,35.17
2023-01-10T15:55:50.466Z,23.70
2023-01-10T15:58:28.808Z,23.10
2023-01-10T16:00:58.441Z,22.83
2023-01-10T16:03:53.898Z,17.25
2023-01-10T16:06:23.813Z,16.30
2023-01-10T16:08:54.379Z,24.48
2023-01-10T16:11:59.986Z,17.27
2023-01-10T16:14:26.907Z,11.98
2023-01-10T16:16:53.948Z,13.23
2023-01-10T16:19:20.890Z,24.45
2023-01-10T16:21:52.112Z,11.88
2023-01-10T16:24:24.683Z,14.05
2023-01-10T16:26:54.004Z,11.48
2023-01-10T16:29:23.164Z,10.40
2023-01-10T16:31:53.487Z,8.77
2023-01-10T16:34:31.619Z,4.68
2023-01-10T16:36:58.574Z,6.97
2023-01-10T16:39:25.743Z,8.82
2023-01-10T16:42:12.359Z,6.88
2023-01-10T16:44:40.096Z,4.68
2023-01-10T16:47:07.376Z,7.55
2023-01-10T16:49:35.837Z,17.55
2023-01-10T16:52:03.975Z,16.80
2023-01-10T16:54:31.911Z,15.32
2023-01-10T16:57:00.185Z,30.33
2023-01-10T16:59:28.903Z,18.08
2023-01-10T17:01:58.265Z,31.73
2023-01-10T17:04:30.349Z,14.40
2023-01-10T17:06:59.795Z,26.70
2023-01-10T17:09:29.745Z,26.55
2023-01-10T17:12:04.386Z,28.38
2023-01-10T17:14:34.316Z,75.80
2023-01-10T17:17:03.259Z,132.77
2023-01-10T17:19:30.761Z,148.32
2023-01-10T17:21:58.754Z,88.45
2023-01-10T17:24:26.463Z,69.70
2023-01-10T17:26:53.497Z,75.85
2023-01-10T17:29:23.158Z,59.50
2023-01-10T17:31:50.600Z,62.83
2023-01-10T17:34:17.639Z,37.42
2023-01-10T17:36:44.604Z,49.25
2023-01-10T17:39:11.816Z,49.25
2023-01-10T17:41:39.116Z,40.40
2023-01-10T17:44:06.201Z,31.55
2023-01-10T17:46:33.666Z,26.60
2023-01-10T17:49:02.755Z,39.35
2023-01-10T17:51:29.955Z,27.00
2023-01-10T17:53:56.959Z,34.90
2023-01-10T17:56:24.845Z,30.98
2023-01-10T17:58:53.775Z,28.02
2023-01-10T18:01:25.321Z,35.25
2023-01-10T18:03:53.938Z,23.00
2023-01-10T18:06:24.866Z,42.53
2023-01-10T18:08:53.161Z,13.55
2023-01-10T18:11:20.923Z,13.80
2023-01-10T18:13:47.966Z,13.05
2023-01-10T18:16:15.472Z,14.48
2023-01-10T18:18:42.732Z,24.63
2023-01-10T18:21:14.644Z,24.20
2023-01-10T18:23:42.778Z,11.90
2023-01-10T18:26:13.358Z,17.15
2023-01-10T18:28:43.281Z,9.80
2023-01-10T18:31:16.898Z,15.55
2023-01-10T18:33:46.285Z,15.55
2023-01-10T18:36:21.758Z,9.32
2023-01-10T18:38:49.679Z,10.18
2023-01-10T18:41:18.997Z,18.85
2023-01-10T18:43:47.363Z,23.52
2023-01-10T18:46:20.620Z,19.55
2023-01-10T18:48:50.668Z,24.05
2023-01-10T18:51:19.492Z,19.48
2023-01-10T18:53:47.794Z,22.10
2023-01-10T18:56:16.480Z,16.90
2023-01-10T18:58:43.585Z,22.85
2023-01-10T19:01:15.535Z,70.28
2023-01-10T19:03:43.122Z,30.80
2023-01-10T19:06:15.017Z,22.20
2023-01-10T19:08:42.935Z,10.98
2023-01-10T19:11:15.248Z,13.38
2023-01-10T19:13:46.957Z,12.70
2023-01-10T19:16:20.200Z,15.40
2023-01-10T19:18:56.158Z,16.27
2023-01-10T19:21:25.894Z,9.65
2023-01-10T19:23:58.253Z,7.65
2023-01-10T19:26:27.707Z,18.23
2023-01-10T19:28:56.380Z,13.93
2023-01-10T19:31:26.590Z,15.80
2023-01-10T19:33:54.523Z,18.93
2023-01-10T19:36:23.716Z,13.05
2023-01-10T19:38:58.551Z,20.85
2023-01-10T19:41:26.856Z,23.80
2023-01-10T19:44:02.028Z,15.75
2023-01-10T19:46:34.535Z,15.95
2023-01-10T19:49:08.333Z,25.67
2023-01-10T19:51:39.998Z,33.53
2023-01-10T19:54:08.961Z,22.45
2023-01-10T19:56:36.980Z,54.80
2023-01-10T19:59:04.346Z,50.40
2023-01-10T20:01:32.686Z,18.33
2023-01-10T20:04:02.656Z,24.70
2023-01-10T20:06:32.548Z,21.38
2023-01-10T20:08:59.744Z,26.35
2023-01-10T20:11:37.995Z,16.27
2023-01-10T20:14:08.153Z,28.38
2023-01-10T20:16:35.522Z,36.42
2023-01-10T20:19:02.735Z,35.75
2023-01-10T20:21:30.239Z,52.28
2023-01-10T20:23:58.883Z,36.80
2023-01-10T20:26:27.602Z,43.05
2023-01-10T20:28:58.846Z,33.65
2023-01-10T20:31:29.878Z,53.35
2023-01-10T20:36:30.506Z,28.13
2023-01-10T20:38:59.218Z,32.20
2023-01-10T20:41:31.835Z,18.85
2023-01-10T20:44:01.737Z,20.92
2023-01-10T20:46:33.660Z,19.48
2023-01-10T20:49:04.251Z,29.52
2023-01-10T20:51:38.410Z,22.33
2023-01-10T20:54:10.034Z,36.78
2023-01-10T20:56:39.866Z,32.35
2023-01-10T20:59:08.475Z,23.60
2023-01-10T21:01:37.315Z,24.88
2023-01-10T21:04:07.891Z,20.17
2023-01-10T21:06:39.398Z,16.33
2023-01-10T21:09:07.761Z,33.50
2023-01-10T21:11:55.717Z,14.45
2023-01-10T21:14:25.043Z,16.40
2023-01-10T21:16:52.339Z,12.35
2023-01-10T21:19:20.834Z,32.20
2023-01-10T21:21:48.899Z,13.13
2023-01-10T21:24:17.396Z,10.48
2023-01-10T21:26:45.205Z,15.10
2023-01-10T21:29:15.109Z,9.98
2023-01-10T21:31:42.471Z,11.18
2023-01-10T21:34:09.800Z,9.95
2023-01-10T21:36:39.299Z,9.75
2023-01-10T21:39:06.482Z,11.90
2023-01-10T21:41:52.296Z,9.63
2023-01-10T21:44:20.731Z,7.63
2023-01-10T21:46:50.352Z,5.93
2023-01-10T21:49:17.870Z,4.95
2023-01-10T21:51:45.813Z,2.45
2023-01-10T21:54:14.434Z,5.10
2023-01-10T21:56:41.895Z,4.47
2023-01-10T21:59:09.005Z,3.13
2023-01-10T22:01:36.600Z,3.97
2023-01-10T22:04:04.483Z,2.92
2023-01-10T22:06:32.432Z,3.78
2023-01-10T22:08:59.610Z,2.65
2023-01-10T22:11:26.809Z,2.47
2023-01-10T22:13:55.380Z,5.38
2023-01-10T22:16:22.556Z,4.25
2023-01-10T22:18:50.723Z,3.20
2023-01-10T22:21:20.630Z,2.75
2023-01-10T22:23:47.916Z,3.53
2023-01-10T22:26:17.092Z,4.55
2023-01-10T22:28:44.866Z,2.88
2023-01-10T22:31:12.242Z,3.15
2023-01-10T22:33:39.719Z,1.92
2023-01-10T22:36:08.881Z,4.43
2023-01-10T22:38:36.026Z,1.70
2023-01-10T22:41:15.046Z,3.30
2023-01-10T22:43:43.703Z,0.90
2023-01-10T22:46:11.477Z,2.47
2023-01-10T22:48:38.974Z,1.73
2023-01-10T22:51:06.241Z,3.17
2023-01-10T22:53:33.890Z,1.65
2023-01-10T22:56:02.726Z,4.10
2023-01-10T22:58:30.284Z,3.47
2023-01-10T23:03:38.291Z,2.97
2023-01-10T23:06:05.256Z,2.53
2023-01-10T23:08:32.620Z,2.25
2023-01-10T23:11:00.109Z,2.55
2023-01-10T23:13:28.332Z,2.00
2023-01-10T23:16:16.765Z,3.95
2023-01-10T23:18:44.099Z,4.45
2023-01-10T23:21:11.236Z,2.50
2023-01-10T23:23:38.271Z,2.35
2023-01-10T23:26:08.811Z,2.67
2023-01-10T23:28:38.516Z,2.45
2023-01-10T23:31:07.375Z,1.70
2023-01-10T23:33:34.581Z,4.65
2023-01-10T23:36:02.241Z,3.17
2023-01-10T23:38:29.936Z,2.22
2023-01-10T23:40:57.300Z,2.15
2023-01-10T23:43:24.776Z,2.28
2023-01-10T23:45:51.905Z,3.03
2023-01-10T23:48:19.311Z,2.90
2023-01-10T23:50:50.093Z,2.00
2023-01-10T23:53:17.919Z,3.15
2023-01-10T23:55:44.929Z,0.98
2023-01-10T23:58:11.837Z,2.20
